sensor_id;sensor_type;location;lat;lon;timestamp;P1;durP1;ratioP1;P2;durP2;ratioP2
79005;SDS011;69202;45.498;-73.582;2023-09-19T00:00:45;8.35;;;5.85;;
79005;SDS011;69202;45.498;-73.582;2023-09-19T00:03:12;8.35;;;4.55;;
79005;SDS011;69202;45.498;-73.582;2023-09-19T00:05:38;6.20;;;4.65;;
79005;SDS011;69202;45.498;-73.582;2023-09-19T00:08:04;9.15;;;5.22;;
79005;SDS011;69202;45.498;-73.582;2023-09-19T00:10:32;8.00;;;4.70;;
79005;SDS011;69202;45.498;-73.582;2023-09-19T00:13:02;9.90;;;6.28;;
79005;SDS011;69202;45.498;-73.582;2023-09-19T00:15:36;6.70;;;4.53;;
79005;SDS011;69202;45.498;-73.582;2023-09-19T00:18:04;10.00;;;5.00;;
79005;SDS011;69202;45.498;-73.582;2023-09-19T00:20:37;5.38;;;4.55;;
79005;SDS011;69202;45.498;-73.582;2023-09-19T00:23:04;7.78;;;5.40;;
79005;SDS011;69202;45.498;-73.582;2023-09-19T00:25:30;6.35;;;4.55;;
79005;SDS011;69202;45.498;-73.582;2023-09-19T00:28:00;7.22;;;5.00;;
79005;SDS011;69202;45.498;-73.582;2023-09-19T00:30:27;5.82;;;4.25;;
79005;SDS011;69202;45.498;-73.582;2023-09-19T00:32:53;9.20;;;5.38;;
79005;SDS011;69202;45.498;-73.582;2023-09-19T00:35:22;5.25;;;4.53;;
79005;SDS011;69202;45.498;-73.582;2023-09-19T00:37:52;6.82;;;4.22;;
79005;SDS011;69202;45.498;-73.582;2023-09-19T00:40:18;7.18;;;4.60;;
79005;SDS011;69202;45.498;-73.582;2023-09-19T00:42:47;7.10;;;5.18;;
79005;SDS011;69202;45.498;-73.582;2023-09-19T00:45:16;6.05;;;4.70;;
79005;SDS011;69202;45.498;-73.582;2023-09-19T00:47:44;6.95;;;5.13;;
79005;SDS011;69202;45.498;-73.582;2023-09-19T00:50:15;7.07;;;5.22;;
79005;SDS011;69202;45.498;-73.582;2023-09-19T00:52:47;7.32;;;5.13;;
79005;SDS011;69202;45.498;-73.582;2023-09-19T00:55:16;8.48;;;6.13;;
79005;SDS011;69202;45.498;-73.582;2023-09-19T00:57:45;6.15;;;4.80;;
79005;SDS011;69202;45.498;-73.582;2023-09-19T01:00:18;7.32;;;4.47;;
79005;SDS011;69202;45.498;-73.582;2023-09-19T01:02:45;9.98;;;5.60;;
79005;SDS011;69202;45.498;-73.582;2023-09-19T01:05:12;7.35;;;5.18;;
79005;SDS011;69202;45.498;-73.582;2023-09-19T01:07:40;12.80;;;4.72;;
79005;SDS011;69202;45.498;-73.582;2023-09-19T01:10:13;14.98;;;4.85;;
79005;SDS011;69202;45.498;-73.582;2023-09-19T01:15:11;17.58;;;4.88;;
79005;SDS011;69202;45.498;-73.582;2023-09-19T01:17:49;13.55;;;4.57;;
79005;SDS011;69202;45.498;-73.582;2023-09-19T01:31:28;10.30;;;4.88;;
79005;SDS011;69202;45.498;-73.582;2023-09-19T01:34:01;10.05;;;4.28;;
79005;SDS011;69202;45.498;-73.582;2023-09-19T01:36:33;9.63;;;5.10;;
79005;SDS011;69202;45.498;-73.582;2023-09-19T01:39:04;6.88;;;4.80;;
79005;SDS011;69202;45.498;-73.582;2023-09-19T01:44:17;9.07;;;4.93;;
79005;SDS011;69202;45.498;-73.582;2023-09-19T01:49:22;8.43;;;4.93;;
79005;SDS011;69202;45.498;-73.582;2023-09-19T01:52:18;6.90;;;4.57;;
79005;SDS011;69202;45.498;-73.582;2023-09-19T01:54:48;7.32;;;5.05;;
79005;SDS011;69202;45.498;-73.582;2023-09-19T01:59:50;7.45;;;5.15;;
79005;SDS011;69202;45.498;-73.582;2023-09-19T02:02:21;8.00;;;5.80;;
79005;SDS011;69202;45.498;-73.582;2023-09-19T02:04:48;6.47;;;5.20;;
79005;SDS011;69202;45.498;-73.582;2023-09-19T02:07:16;6.43;;;5.05;;
79005;SDS011;69202;45.498;-73.582;2023-09-19T02:09:42;8.07;;;6.13;;
79005;SDS011;69202;45.498;-73.582;2023-09-19T02:12:09;7.40;;;5.90;;
79005;SDS011;69202;45.498;-73.582;2023-09-19T02:14:35;8.80;;;6.25;;
79005;SDS011;69202;45.498;-73.582;2023-09-19T02:17:04;10.13;;;6.03;;
79005;SDS011;69202;45.498;-73.582;2023-09-19T02:19:36;9.02;;;5.68;;
79005;SDS011;69202;45.498;-73.582;2023-09-19T02:22:04;9.23;;;5.70;;
79005;SDS011;69202;45.498;-73.582;2023-09-19T02:24:35;7.43;;;5.90;;
79005;SDS011;69202;45.498;-73.582;2023-09-19T02:27:04;7.03;;;6.10;;
79005;SDS011;69202;45.498;-73.582;2023-09-19T02:29:32;8.05;;;5.78;;
79005;SDS011;69202;45.498;-73.582;2023-09-19T02:32:00;7.38;;;6.20;;
79005;SDS011;69202;45.498;-73.582;2023-09-19T02:34:26;7.18;;;5.63;;
79005;SDS011;69202;45.498;-73.582;2023-09-19T02:36:52;9.02;;;5.90;;
79005;SDS011;69202;45.498;-73.582;2023-09-19T02:39:20;8.55;;;5.93;;
79005;SDS011;69202;45.498;-73.582;2023-09-19T02:41:46;9.00;;;7.20;;
79005;SDS011;69202;45.498;-73.582;2023-09-19T02:44:12;10.82;;;7.32;;
79005;SDS011;69202;45.498;-73.582;2023-09-19T02:46:37;10.00;;;7.03;;
79005;SDS011;69202;45.498;-73.582;2023-09-19T02:49:03;9.73;;;6.57;;
79005;SDS011;69202;45.498;-73.582;2023-09-19T02:51:32;11.25;;;8.93;;
79005;SDS011;69202;45.498;-73.582;2023-09-19T02:53:59;11.10;;;8.15;;
79005;SDS011;69202;45.498;-73.582;2023-09-19T02:56:25;10.98;;;8.48;;
79005;SDS011;69202;45.498;-73.582;2023-09-19T02:58:51;8.95;;;7.07;;
79005;SDS011;69202;45.498;-73.582;2023-09-19T03:01:18;11.23;;;8.10;;
79005;SDS011;69202;45.498;-73.582;2023-09-19T03:03:44;12.27;;;8.77;;
79005;SDS011;69202;45.498;-73.582;2023-09-19T03:06:11;8.40;;;6.45;;
79005;SDS011;69202;45.498;-73.582;2023-09-19T03:08:37;13.25;;;9.60;;
79005;SDS011;69202;45.498;-73.582;2023-09-19T03:11:06;9.57;;;8.35;;
79005;SDS011;69202;45.498;-73.582;2023-09-19T03:13:35;6.88;;;5.38;;
79005;SDS011;69202;45.498;-73.582;2023-09-19T03:16:03;9.98;;;7.15;;
79005;SDS011;69202;45.498;-73.582;2023-09-19T03:18:33;12.25;;;8.30;;
79005;SDS011;69202;45.498;-73.582;2023-09-19T03:21:00;13.40;;;8.00;;
79005;SDS011;69202;45.498;-73.582;2023-09-19T03:23:29;10.02;;;6.68;;
79005;SDS011;69202;45.498;-73.582;2023-09-19T03:25:55;10.63;;;7.03;;
79005;SDS011;69202;45.498;-73.582;2023-09-19T03:28:21;8.88;;;7.18;;
79005;SDS011;69202;45.498;-73.582;2023-09-19T03:30:58;8.82;;;7.13;;
79005;SDS011;69202;45.498;-73.582;2023-09-19T03:33:25;7.43;;;6.20;;
79005;SDS011;69202;45.498;-73.582;2023-09-19T03:35:52;8.85;;;6.53;;
79005;SDS011;69202;45.498;-73.582;2023-09-19T03:38:19;7.03;;;5.68;;
79005;SDS011;69202;45.498;-73.582;2023-09-19T03:40:45;7.32;;;6.10;;
79005;SDS011;69202;45.498;-73.582;2023-09-19T03:43:11;7.13;;;5.57;;
79005;SDS011;69202;45.498;-73.582;2023-09-19T03:45:37;9.00;;;5.78;;
79005;SDS011;69202;45.498;-73.582;2023-09-19T03:48:12;8.02;;;6.35;;
79005;SDS011;69202;45.498;-73.582;2023-09-19T03:50:38;9.88;;;6.47;;
79005;SDS011;69202;45.498;-73.582;2023-09-19T03:53:04;7.88;;;7.07;;
79005;SDS011;69202;45.498;-73.582;2023-09-19T03:55:32;10.73;;;7.28;;
79005;SDS011;69202;45.498;-73.582;2023-09-19T03:58:04;11.00;;;6.40;;
79005;SDS011;69202;45.498;-73.582;2023-09-19T04:00:30;6.82;;;5.95;;
79005;SDS011;69202;45.498;-73.582;2023-09-19T04:02:56;8.23;;;5.72;;
79005;SDS011;69202;45.498;-73.582;2023-09-19T04:05:22;9.98;;;6.63;;
79005;SDS011;69202;45.498;-73.582;2023-09-19T04:07:49;6.72;;;5.80;;
79005;SDS011;69202;45.498;-73.582;2023-09-19T04:10:18;8.85;;;5.55;;
79005;SDS011;69202;45.498;-73.582;2023-09-19T04:12:52;7.22;;;5.90;;
79005;SDS011;69202;45.498;-73.582;2023-09-19T04:15:19;6.38;;;5.72;;
79005;SDS011;69202;45.498;-73.582;2023-09-19T04:17:47;9.23;;;6.18;;
79005;SDS011;69202;45.498;-73.582;2023-09-19T04:20:13;8.73;;;5.88;;
79005;SDS011;69202;45.498;-73.582;2023-09-19T04:22:40;10.35;;;7.30;;
79005;SDS011;69202;45.498;-73.582;2023-09-19T04:25:06;9.15;;;6.80;;
79005;SDS011;69202;45.498;-73.582;2023-09-19T04:27:32;6.97;;;6.07;;
79005;SDS011;69202;45.498;-73.582;2023-09-19T04:29:58;8.52;;;5.40;;
79005;SDS011;69202;45.498;-73.582;2023-09-19T04:32:33;9.10;;;5.25;;
79005;SDS011;69202;45.498;-73.582;2023-09-19T04:35:01;7.88;;;5.35;;
79005;SDS011;69202;45.498;-73.582;2023-09-19T04:37:30;8.73;;;5.55;;
79005;SDS011;69202;45.498;-73.582;2023-09-19T04:39:56;7.75;;;6.53;;
79005;SDS011;69202;45.498;-73.582;2023-09-19T04:42:22;9.68;;;6.45;;
79005;SDS011;69202;45.498;-73.582;2023-09-19T04:44:50;9.48;;;6.65;;
79005;SDS011;69202;45.498;-73.582;2023-09-19T04:47:19;9.93;;;6.63;;
79005;SDS011;69202;45.498;-73.582;2023-09-19T04:49:46;9.75;;;7.30;;
79005;SDS011;69202;45.498;-73.582;2023-09-19T04:52:12;9.75;;;7.57;;
79005;SDS011;69202;45.498;-73.582;2023-09-19T04:54:40;13.75;;;9.40;;
79005;SDS011;69202;45.498;-73.582;2023-09-19T04:57:06;10.38;;;8.75;;
79005;SDS011;69202;45.498;-73.582;2023-09-19T04:59:32;13.13;;;9.00;;
79005;SDS011;69202;45.498;-73.582;2023-09-19T05:01:58;9.02;;;6.60;;
79005;SDS011;69202;45.498;-73.582;2023-09-19T05:04:24;10.23;;;8.85;;
79005;SDS011;69202;45.498;-73.582;2023-09-19T05:06:50;11.05;;;7.55;;
79005;SDS011;69202;45.498;-73.582;2023-09-19T05:09:18;10.60;;;8.32;;
79005;SDS011;69202;45.498;-73.582;2023-09-19T05:11:46;10.10;;;8.23;;
79005;SDS011;69202;45.498;-73.582;2023-09-19T05:14:12;10.32;;;7.63;;
79005;SDS011;69202;45.498;-73.582;2023-09-19T05:16:38;6.38;;;5.75;;
79005;SDS011;69202;45.498;-73.582;2023-09-19T05:19:06;6.60;;;5.78;;
79005;SDS011;69202;45.498;-73.582;2023-09-19T05:21:35;8.25;;;6.78;;
79005;SDS011;69202;45.498;-73.582;2023-09-19T05:24:00;7.40;;;5.85;;
79005;SDS011;69202;45.498;-73.582;2023-09-19T05:26:27;7.68;;;6.68;;
79005;SDS011;69202;45.498;-73.582;2023-09-19T05:28:53;9.63;;;6.80;;
79005;SDS011;69202;45.498;-73.582;2023-09-19T05:31:19;7.20;;;6.50;;
79005;SDS011;69202;45.498;-73.582;2023-09-19T05:33:45;7.85;;;6.60;;
79005;SDS011;69202;45.498;-73.582;2023-09-19T05:36:11;7.18;;;5.93;;
79005;SDS011;69202;45.498;-73.582;2023-09-19T05:38:37;8.20;;;6.60;;
79005;SDS011;69202;45.498;-73.582;2023-09-19T05:41:07;8.32;;;6.50;;
79005;SDS011;69202;45.498;-73.582;2023-09-19T05:43:35;7.15;;;6.00;;
79005;SDS011;69202;45.498;-73.582;2023-09-19T05:46:02;9.02;;;5.75;;
79005;SDS011;69202;45.498;-73.582;2023-09-19T05:48:29;6.38;;;5.53;;
79005;SDS011;69202;45.498;-73.582;2023-09-19T05:50:54;6.40;;;5.65;;
79005;SDS011;69202;45.498;-73.582;2023-09-19T05:53:20;9.65;;;6.75;;
79005;SDS011;69202;45.498;-73.582;2023-09-19T05:55:49;8.40;;;6.55;;
79005;SDS011;69202;45.498;-73.582;2023-09-19T05:58:17;6.85;;;5.70;;
79005;SDS011;69202;45.498;-73.582;2023-09-19T06:00:45;8.00;;;7.20;;
79005;SDS011;69202;45.498;-73.582;2023-09-19T06:03:13;11.57;;;7.07;;
79005;SDS011;69202;45.498;-73.582;2023-09-19T06:05:40;10.93;;;7.45;;
79005;SDS011;69202;45.498;-73.582;2023-09-19T06:08:07;12.38;;;7.22;;
79005;SDS011;69202;45.498;-73.582;2023-09-19T06:10:35;9.27;;;6.72;;
79005;SDS011;69202;45.498;-73.582;2023-09-19T06:13:07;7.63;;;6.50;;
79005;SDS011;69202;45.498;-73.582;2023-09-19T06:15:36;11.65;;;7.30;;
79005;SDS011;69202;45.498;-73.582;2023-09-19T06:18:02;9.80;;;7.75;;
79005;SDS011;69202;45.498;-73.582;2023-09-19T06:20:30;8.10;;;5.72;;
79005;SDS011;69202;45.498;-73.582;2023-09-19T06:22:58;10.23;;;6.78;;
79005;SDS011;69202;45.498;-73.582;2023-09-19T06:25:24;12.55;;;7.78;;
79005;SDS011;69202;45.498;-73.582;2023-09-19T06:27:51;10.18;;;7.53;;
79005;SDS011;69202;45.498;-73.582;2023-09-19T06:30:22;10.20;;;7.63;;
79005;SDS011;69202;45.498;-73.582;2023-09-19T06:32:49;7.32;;;6.05;;
79005;SDS011;69202;45.498;-73.582;2023-09-19T06:35:22;8.60;;;6.70;;
79005;SDS011;69202;45.498;-73.582;2023-09-19T06:37:49;11.80;;;8.43;;
79005;SDS011;69202;45.498;-73.582;2023-09-19T06:40:18;8.65;;;6.00;;
79005;SDS011;69202;45.498;-73.582;2023-09-19T06:42:46;9.15;;;7.70;;
79005;SDS011;69202;45.498;-73.582;2023-09-19T06:45:15;8.88;;;7.95;;
79005;SDS011;69202;45.498;-73.582;2023-09-19T06:47:45;12.93;;;8.20;;
79005;SDS011;69202;45.498;-73.582;2023-09-19T06:50:14;9.85;;;6.63;;
79005;SDS011;69202;45.498;-73.582;2023-09-19T06:52:41;8.18;;;7.05;;
79005;SDS011;69202;45.498;-73.582;2023-09-19T06:55:07;9.80;;;7.72;;
79005;SDS011;69202;45.498;-73.582;2023-09-19T06:57:35;13.20;;;8.52;;
79005;SDS011;69202;45.498;-73.582;2023-09-19T07:00:01;8.13;;;7.28;;
79005;SDS011;69202;45.498;-73.582;2023-09-19T07:02:27;11.45;;;7.88;;
79005;SDS011;69202;45.498;-73.582;2023-09-19T07:04:53;10.82;;;7.55;;
79005;SDS011;69202;45.498;-73.582;2023-09-19T07:07:19;8.73;;;7.82;;
79005;SDS011;69202;45.498;-73.582;2023-09-19T07:09:45;9.85;;;6.72;;
79005;SDS011;69202;45.498;-73.582;2023-09-19T07:12:14;8.05;;;6.50;;
79005;SDS011;69202;45.498;-73.582;2023-09-19T07:14:40;9.43;;;7.43;;
79005;SDS011;69202;45.498;-73.582;2023-09-19T07:17:06;10.90;;;8.07;;
79005;SDS011;69202;45.498;-73.582;2023-09-19T07:19:32;9.02;;;7.65;;
79005;SDS011;69202;45.498;-73.582;2023-09-19T07:21:58;9.55;;;7.88;;
79005;SDS011;69202;45.498;-73.582;2023-09-19T07:24:28;8.82;;;7.93;;
79005;SDS011;69202;45.498;-73.582;2023-09-19T07:26:54;12.38;;;8.05;;
79005;SDS011;69202;45.498;-73.582;2023-09-19T07:29:20;10.82;;;8.38;;
79005;SDS011;69202;45.498;-73.582;2023-09-19T07:31:46;11.70;;;8.02;;
79005;SDS011;69202;45.498;-73.582;2023-09-19T07:34:12;7.57;;;6.85;;
79005;SDS011;69202;45.498;-73.582;2023-09-19T07:36:39;9.50;;;7.30;;
79005;SDS011;69202;45.498;-73.582;2023-09-19T07:39:07;7.88;;;6.85;;
79005;SDS011;69202;45.498;-73.582;2023-09-19T07:41:33;9.63;;;7.15;;
79005;SDS011;69202;45.498;-73.582;2023-09-19T07:44:00;11.18;;;7.70;;
79005;SDS011;69202;45.498;-73.582;2023-09-19T07:46:27;8.82;;;6.50;;
79005;SDS011;69202;45.498;-73.582;2023-09-19T07:48:53;9.55;;;6.35;;
79005;SDS011;69202;45.498;-73.582;2023-09-19T07:51:19;8.98;;;6.40;;
79005;SDS011;69202;45.498;-73.582;2023-09-19T07:53:45;7.22;;;6.53;;
79005;SDS011;69202;45.498;-73.582;2023-09-19T07:56:11;9.48;;;6.90;;
79005;SDS011;69202;45.498;-73.582;2023-09-19T07:58:41;11.15;;;7.18;;
79005;SDS011;69202;45.498;-73.582;2023-09-19T08:01:09;7.55;;;6.25;;
79005;SDS011;69202;45.498;-73.582;2023-09-19T08:03:36;7.10;;;5.75;;
79005;SDS011;69202;45.498;-73.582;2023-09-19T08:06:06;7.82;;;5.95;;
79005;SDS011;69202;45.498;-73.582;2023-09-19T08:08:33;6.40;;;5.28;;
79005;SDS011;69202;45.498;-73.582;2023-09-19T08:11:02;5.88;;;5.18;;
79005;SDS011;69202;45.498;-73.582;2023-09-19T08:13:46;6.32;;;5.40;;
79005;SDS011;69202;45.498;-73.582;2023-09-19T08:16:14;6.60;;;5.20;;
79005;SDS011;69202;45.498;-73.582;2023-09-19T08:18:41;6.28;;;4.80;;
79005;SDS011;69202;45.498;-73.582;2023-09-19T08:21:08;5.55;;;4.20;;
79005;SDS011;69202;45.498;-73.582;2023-09-19T08:23:37;5.28;;;4.18;;
79005;SDS011;69202;45.498;-73.582;2023-09-19T08:26:04;5.43;;;3.75;;
79005;SDS011;69202;45.498;-73.582;2023-09-19T08:28:34;5.55;;;3.90;;
79005;SDS011;69202;45.498;-73.582;2023-09-19T08:31:01;4.95;;;4.20;;
79005;SDS011;69202;45.498;-73.582;2023-09-19T08:33:31;6.28;;;3.90;;
79005;SDS011;69202;45.498;-73.582;2023-09-19T08:35:58;5.78;;;3.92;;
79005;SDS011;69202;45.498;-73.582;2023-09-19T08:38:25;4.47;;;4.03;;
79005;SDS011;69202;45.498;-73.582;2023-09-19T08:40:59;4.93;;;3.95;;
79005;SDS011;69202;45.498;-73.582;2023-09-19T08:43:26;5.22;;;3.92;;
79005;SDS011;69202;45.498;-73.582;2023-09-19T08:46:03;5.20;;;3.97;;
79005;SDS011;69202;45.498;-73.582;2023-09-19T08:48:33;7.70;;;4.28;;
79005;SDS011;69202;45.498;-73.582;2023-09-19T08:51:02;6.43;;;4.00;;
79005;SDS011;69202;45.498;-73.582;2023-09-19T08:53:58;5.32;;;4.30;;
79005;SDS011;69202;45.498;-73.582;2023-09-19T08:56:32;5.63;;;3.85;;
79005;SDS011;69202;45.498;-73.582;2023-09-19T08:59:05;4.32;;;3.80;;
79005;SDS011;69202;45.498;-73.582;2023-09-19T09:01:37;5.47;;;3.88;;
79005;SDS011;69202;45.498;-73.582;2023-09-19T09:04:07;4.07;;;3.22;;
79005;SDS011;69202;45.498;-73.582;2023-09-19T09:06:38;4.25;;;3.85;;
79005;SDS011;69202;45.498;-73.582;2023-09-19T09:09:08;3.83;;;3.20;;
79005;SDS011;69202;45.498;-73.582;2023-09-19T09:11:36;4.88;;;3.53;;
79005;SDS011;69202;45.498;-73.582;2023-09-19T09:14:05;5.90;;;3.30;;
79005;SDS011;69202;45.498;-73.582;2023-09-19T09:16:32;4.03;;;3.45;;
79005;SDS011;69202;45.498;-73.582;2023-09-19T09:18:59;4.53;;;3.28;;
79005;SDS011;69202;45.498;-73.582;2023-09-19T09:21:26;3.67;;;3.38;;
79005;SDS011;69202;45.498;-73.582;2023-09-19T09:23:53;3.42;;;3.13;;
79005;SDS011;69202;45.498;-73.582;2023-09-19T09:27:02;4.13;;;2.63;;
79005;SDS011;69202;45.498;-73.582;2023-09-19T09:29:09;2.92;;;2.25;;
79005;SDS011;69202;45.498;-73.582;2023-09-19T09:31:35;2.65;;;2.45;;
79005;SDS011;69202;45.498;-73.582;2023-09-19T09:34:02;3.13;;;2.33;;
79005;SDS011;69202;45.498;-73.582;2023-09-19T09:36:35;2.75;;;2.25;;
79005;SDS011;69202;45.498;-73.582;2023-09-19T09:39:06;2.50;;;2.30;;
79005;SDS011;69202;45.498;-73.582;2023-09-19T09:41:44;4.53;;;2.35;;
79005;SDS011;69202;45.498;-73.582;2023-09-19T09:44:14;3.35;;;2.20;;
79005;SDS011;69202;45.498;-73.582;2023-09-19T09:46:46;2.10;;;1.90;;
79005;SDS011;69202;45.498;-73.582;2023-09-19T09:49:23;3.58;;;2.67;;
79005;SDS011;69202;45.498;-73.582;2023-09-19T09:52:03;2.78;;;2.17;;
79005;SDS011;69202;45.498;-73.582;2023-09-19T09:55:04;2.65;;;2.45;;
79005;SDS011;69202;45.498;-73.582;2023-09-19T09:57:33;2.70;;;2.45;;
79005;SDS011;69202;45.498;-73.582;2023-09-19T10:00:05;3.08;;;2.13;;
79005;SDS011;69202;45.498;-73.582;2023-09-19T10:02:38;3.28;;;2.33;;
79005;SDS011;69202;45.498;-73.582;2023-09-19T10:05:18;3.13;;;2.63;;
79005;SDS011;69202;45.498;-73.582;2023-09-19T10:07:48;2.60;;;2.40;;
79005;SDS011;69202;45.498;-73.582;2023-09-19T10:10:31;3.03;;;2.70;;
79005;SDS011;69202;45.498;-73.582;2023-09-19T10:13:19;3.20;;;2.85;;
79005;SDS011;69202;45.498;-73.582;2023-09-19T10:15:54;2.80;;;2.60;;
79005;SDS011;69202;45.498;-73.582;2023-09-19T10:18:24;4.53;;;3.22;;
79005;SDS011;69202;45.498;-73.582;2023-09-19T10:20:53;4.30;;;2.75;;
79005;SDS011;69202;45.498;-73.582;2023-09-19T10:23:20;4.47;;;2.60;;
79005;SDS011;69202;45.498;-73.582;2023-09-19T10:25:54;5.18;;;2.47;;
79005;SDS011;69202;45.498;-73.582;2023-09-19T10:28:21;2.80;;;2.58;;
79005;SDS011;69202;45.498;-73.582;2023-09-19T10:30:47;2.63;;;2.40;;
79005;SDS011;69202;45.498;-73.582;2023-09-19T10:33:21;6.22;;;2.55;;
79005;SDS011;69202;45.498;-73.582;2023-09-19T10:35:54;3.67;;;2.70;;
79005;SDS011;69202;45.498;-73.582;2023-09-19T10:38:25;3.80;;;3.05;;
79005;SDS011;69202;45.498;-73.582;2023-09-19T10:40:54;4.32;;;2.88;;
79005;SDS011;69202;45.498;-73.582;2023-09-19T10:43:31;5.15;;;3.50;;
79005;SDS011;69202;45.498;-73.582;2023-09-19T10:46:02;3.70;;;3.03;;
79005;SDS011;69202;45.498;-73.582;2023-09-19T10:48:32;3.55;;;2.90;;
79005;SDS011;69202;45.498;-73.582;2023-09-19T10:51:02;2.58;;;2.25;;
79005;SDS011;69202;45.498;-73.582;2023-09-19T10:53:40;3.38;;;3.08;;
79005;SDS011;69202;45.498;-73.582;2023-09-19T10:56:27;2.72;;;2.50;;
79005;SDS011;69202;45.498;-73.582;2023-09-19T10:59:07;4.68;;;3.20;;
79005;SDS011;69202;45.498;-73.582;2023-09-19T11:01:45;5.57;;;2.63;;
79005;SDS011;69202;45.498;-73.582;2023-09-19T11:04:37;3.67;;;3.13;;
79005;SDS011;69202;45.498;-73.582;2023-09-19T11:14:57;3.83;;;2.63;;
79005;SDS011;69202;45.498;-73.582;2023-09-19T11:17:30;3.17;;;2.60;;
79005;SDS011;69202;45.498;-73.582;2023-09-19T11:30:37;4.55;;;2.67;;
79005;SDS011;69202;45.498;-73.582;2023-09-19T11:43:51;4.97;;;2.80;;
79005;SDS011;69202;45.498;-73.582;2023-09-19T11:46:20;2.92;;;2.65;;
79005;SDS011;69202;45.498;-73.582;2023-09-19T11:48:50;5.53;;;2.42;;
79005;SDS011;69202;45.498;-73.582;2023-09-19T11:51:21;4.47;;;2.47;;
79005;SDS011;69202;45.498;-73.582;2023-09-19T11:53:58;4.72;;;2.78;;
79005;SDS011;69202;45.498;-73.582;2023-09-19T11:56:27;2.60;;;2.38;;
79005;SDS011;69202;45.498;-73.582;2023-09-19T11:58:54;3.72;;;2.22;;
79005;SDS011;69202;45.498;-73.582;2023-09-19T12:01:31;3.22;;;2.63;;
79005;SDS011;69202;45.498;-73.582;2023-09-19T12:04:00;3.05;;;2.38;;
79005;SDS011;69202;45.498;-73.582;2023-09-19T12:06:29;4.13;;;2.20;;
79005;SDS011;69202;45.498;-73.582;2023-09-19T12:08:57;7.07;;;2.13;;
79005;SDS011;69202;45.498;-73.582;2023-09-19T12:11:27;4.47;;;2.50;;
79005;SDS011;69202;45.498;-73.582;2023-09-19T12:13:58;5.03;;;2.40;;
79005;SDS011;69202;45.498;-73.582;2023-09-19T12:16:26;3.97;;;2.28;;
79005;SDS011;69202;45.498;-73.582;2023-09-19T12:18:55;2.67;;;2.10;;
79005;SDS011;69202;45.498;-73.582;2023-09-19T12:26:40;3.60;;;2.20;;
79005;SDS011;69202;45.498;-73.582;2023-09-19T12:29:17;3.45;;;1.98;;
79005;SDS011;69202;45.498;-73.582;2023-09-19T12:31:48;2.50;;;1.92;;
79005;SDS011;69202;45.498;-73.582;2023-09-19T12:37:08;2.88;;;1.80;;
79005;SDS011;69202;45.498;-73.582;2023-09-19T12:39:44;3.15;;;2.10;;
79005;SDS011;69202;45.498;-73.582;2023-09-19T12:42:23;1.70;;;1.52;;
79005;SDS011;69202;45.498;-73.582;2023-09-19T12:44:57;2.42;;;1.95;;
79005;SDS011;69202;45.498;-73.582;2023-09-19T12:47:26;6.35;;;2.00;;
79005;SDS011;69202;45.498;-73.582;2023-09-19T12:50:05;4.95;;;2.22;;
79005;SDS011;69202;45.498;-73.582;2023-09-19T12:52:36;2.95;;;1.95;;
79005;SDS011;69202;45.498;-73.582;2023-09-19T12:55:02;3.40;;;1.85;;
79005;SDS011;69202;45.498;-73.582;2023-09-19T12:57:30;1.45;;;1.35;;
79005;SDS011;69202;45.498;-73.582;2023-09-19T13:00:02;3.72;;;1.80;;
79005;SDS011;69202;45.498;-73.582;2023-09-19T13:02:36;3.65;;;1.70;;
79005;SDS011;69202;45.498;-73.582;2023-09-19T13:05:03;2.95;;;2.10;;
79005;SDS011;69202;45.498;-73.582;2023-09-19T13:07:42;4.00;;;2.00;;
79005;SDS011;69202;45.498;-73.582;2023-09-19T13:10:09;9.68;;;2.83;;
79005;SDS011;69202;45.498;-73.582;2023-09-19T13:12:35;5.95;;;2.35;;
79005;SDS011;69202;45.498;-73.582;2023-09-19T13:15:07;10.50;;;3.30;;
79005;SDS011;69202;45.498;-73.582;2023-09-19T13:17:44;6.00;;;2.30;;
79005;SDS011;69202;45.498;-73.582;2023-09-19T13:20:23;9.25;;;2.72;;
79005;SDS011;69202;45.498;-73.582;2023-09-19T13:22:53;5.00;;;2.00;;
79005;SDS011;69202;45.498;-73.582;2023-09-19T13:25:31;8.43;;;3.33;;
79005;SDS011;69202;45.498;-73.582;2023-09-19T13:27:58;4.95;;;2.67;;
79005;SDS011;69202;45.498;-73.582;2023-09-19T13:30:28;5.50;;;2.30;;
79005;SDS011;69202;45.498;-73.582;2023-09-19T13:33:09;4.80;;;2.20;;
79005;SDS011;69202;45.498;-73.582;2023-09-19T13:35:39;4.32;;;1.75;;
79005;SDS011;69202;45.498;-73.582;2023-09-19T13:38:06;2.95;;;2.00;;
79005;SDS011;69202;45.498;-73.582;2023-09-19T13:40:36;9.00;;;2.55;;
79005;SDS011;69202;45.498;-73.582;2023-09-19T13:43:04;10.70;;;2.45;;
79005;SDS011;69202;45.498;-73.582;2023-09-19T13:45:32;10.98;;;2.10;;
79005;SDS011;69202;45.498;-73.582;2023-09-19T13:47:57;4.25;;;2.20;;
79005;SDS011;69202;45.498;-73.582;2023-09-19T13:50:26;4.13;;;1.80;;
79005;SDS011;69202;45.498;-73.582;2023-09-19T13:52:54;5.10;;;2.03;;
79005;SDS011;69202;45.498;-73.582;2023-09-19T13:55:20;4.90;;;2.20;;
79005;SDS011;69202;45.498;-73.582;2023-09-19T13:57:49;9.88;;;2.58;;
79005;SDS011;69202;45.498;-73.582;2023-09-19T14:00:17;3.25;;;2.17;;
79005;SDS011;69202;45.498;-73.582;2023-09-19T14:02:43;8.65;;;3.28;;
79005;SDS011;69202;45.498;-73.582;2023-09-19T14:05:14;5.72;;;1.80;;
79005;SDS011;69202;45.498;-73.582;2023-09-19T14:07:44;3.58;;;2.00;;
79005;SDS011;69202;45.498;-73.582;2023-09-19T14:10:10;3.38;;;1.90;;
79005;SDS011;69202;45.498;-73.582;2023-09-19T14:12:37;3.40;;;1.92;;
79005;SDS011;69202;45.498;-73.582;2023-09-19T14:15:07;3.67;;;1.67;;
79005;SDS011;69202;45.498;-73.582;2023-09-19T14:17:34;3.50;;;1.27;;
79005;SDS011;69202;45.498;-73.582;2023-09-19T14:20:00;1.00;;;0.90;;
79005;SDS011;69202;45.498;-73.582;2023-09-19T14:22:25;2.97;;;1.30;;
79005;SDS011;69202;45.498;-73.582;2023-09-19T14:24:51;1.85;;;0.95;;
79005;SDS011;69202;45.498;-73.582;2023-09-19T14:27:18;1.98;;;1.00;;
79005;SDS011;69202;45.498;-73.582;2023-09-19T14:29:44;2.05;;;1.10;;
79005;SDS011;69202;45.498;-73.582;2023-09-19T14:32:10;1.45;;;0.90;;
79005;SDS011;69202;45.498;-73.582;2023-09-19T14:34:36;2.63;;;1.20;;
79005;SDS011;69202;45.498;-73.582;2023-09-19T14:37:07;1.10;;;0.90;;
79005;SDS011;69202;45.498;-73.582;2023-09-19T14:39:33;3.88;;;1.50;;
79005;SDS011;69202;45.498;-73.582;2023-09-19T14:41:59;1.85;;;0.85;;
79005;SDS011;69202;45.498;-73.582;2023-09-19T14:44:25;1.27;;;1.00;;
79005;SDS011;69202;45.498;-73.582;2023-09-19T14:46:53;1.30;;;1.10;;
79005;SDS011;69202;45.498;-73.582;2023-09-19T14:49:20;1.90;;;1.20;;
79005;SDS011;69202;45.498;-73.582;2023-09-19T14:51:46;2.13;;;1.30;;
79005;SDS011;69202;45.498;-73.582;2023-09-19T14:54:15;2.45;;;1.13;;
79005;SDS011;69202;45.498;-73.582;2023-09-19T14:56:44;3.13;;;1.10;;
79005;SDS011;69202;45.498;-73.582;2023-09-19T14:59:10;1.92;;;1.40;;
79005;SDS011;69202;45.498;-73.582;2023-09-19T15:01:36;1.55;;;1.00;;
79005;SDS011;69202;45.498;-73.582;2023-09-19T15:04:03;1.60;;;1.33;;
79005;SDS011;69202;45.498;-73.582;2023-09-19T15:06:29;5.75;;;1.60;;
79005;SDS011;69202;45.498;-73.582;2023-09-19T15:08:55;2.63;;;1.67;;
79005;SDS011;69202;45.498;-73.582;2023-09-19T15:11:22;2.53;;;1.40;;
79005;SDS011;69202;45.498;-73.582;2023-09-19T15:13:50;2.08;;;1.35;;
79005;SDS011;69202;45.498;-73.582;2023-09-19T15:16:18;3.38;;;1.50;;
79005;SDS011;69202;45.498;-73.582;2023-09-19T15:18:45;3.20;;;1.63;;
79005;SDS011;69202;45.498;-73.582;2023-09-19T15:21:14;1.83;;;1.40;;
79005;SDS011;69202;45.498;-73.582;2023-09-19T15:23:41;2.50;;;1.48;;
79005;SDS011;69202;45.498;-73.582;2023-09-19T15:26:08;3.15;;;1.30;;
79005;SDS011;69202;45.498;-73.582;2023-09-19T15:28:36;1.88;;;1.60;;